Latest Weather Observations for Cape Leeuwin

IDW60801

Issued at 7:05 pm WST Tuesday 2 September 2014 (issued every 30 minutes, with the page automatically refreshed every 10 minutes)

About weather observations | Map of weather stations | Latest weather observations for WA | Other Formats
Station Details ID: 009518 Name: CAPE LEEUWIN Lat: -34.37 Lon: 115.14 Height: 13.0 m
Data from the previous 72 hours. | See also: Recent months at Cape Leeuwin
Date/Time
WST
Temp
°C
App
Temp
°C
Dew
Point
Rel
Hum
%
Delta-T
°C
Wind Press
QNH
hPa
Press
MSL
hPa
Rain
since 9 am
mm
Dir
 
Spd
km/h
Gust
km/h
Spd
kts
Gust
kts
02/07:00pm 15.3 11.2 11.4 77 2.1 SW 24 30 13 16 1019.0 1019.0 0.2
02/06:30pm 15.4 11.1 11.9 79 1.9 SW 26 35 14 19 1018.3 1018.3 0.2
02/06:00pm 15.5 9.8 13.0 85 1.4 SW 35 43 19 23 1017.8 1017.8 0.2
02/05:30pm 16.0 10.5 13.5 85 1.4 SW 35 43 19 23 1017.0 1017.0 0.2
02/05:00pm 16.8 11.5 13.2 79 2.0 W 33 37 18 20 1016.3 1016.3 0.2
02/04:30pm 16.8 11.7 13.0 78 2.1 W 32 37 17 20 1016.0 1016.0 0.2
02/04:00pm 16.8 10.8 13.4 80 1.9 W 37 43 20 23 1015.9 1015.9 0.2
02/03:30pm 17.5 12.6 13.6 78 2.2 W 32 37 17 20 1015.6 1015.6 0.0
02/03:00pm 17.8 14.4 17.6 99 0.1 W 32 37 17 20 1015.4 1015.4 0.0
02/02:30pm 18.2 14.9 18.0 99 0.1 W 32 37 17 20 1015.2 1015.2 0.0
02/02:00pm 18.4 15.1 18.4 100 0.0 W 33 39 18 21 1015.2 1015.2 0.0
02/01:30pm 18.0 14.7 18.0 100 0.0 WNW 32 37 17 20 1015.4 1015.4 0.0
02/01:00pm 17.7 16.2 17.7 100 0.0 NW 22 26 12 14 1015.6 1015.6 0.0
02/12:30pm 17.6 16.4 17.4 99 0.1 NW 20 24 11 13 1015.5 1015.5 0.0
02/12:00pm 17.0 15.2 17.0 100 0.0 NW 22 24 12 13 1015.8 1015.8 0.0
02/11:30am 16.6 15.0 16.6 100 0.0 NW 20 24 11 13 1016.2 1016.2 0.0
02/11:00am 16.7 14.3 16.5 99 0.1 NW 24 26 13 14 1016.6 1016.6 0.0
02/10:30am 16.8 14.9 16.8 100 0.0 NNW 22 30 12 16 1016.7 1016.7 0.0
02/10:00am 15.6 13.8 15.6 100 0.0 N 19 26 10 14 1016.8 1016.8 0.0
02/09:30am 14.5 11.6 14.1 97 0.2 N 22 28 12 15 1016.6 1016.6 0.0
02/09:00am 14.3 11.7 13.2 93 0.6 N 19 24 10 13 1016.7 1016.7 0.0
02/08:30am 13.2 8.8 8.8 74 2.2 NNE 22 26 12 14 1016.5 1016.5 0.0
02/08:00am 12.5 6.2 3.8 55 3.9 NNE 26 32 14 17 1016.5 1016.5 0.0
02/07:30am 12.6 5.8 3.1 52 4.2 NNE 28 35 15 19 1016.1 1016.1 0.0
02/07:00am 12.8 5.9 2.8 50 4.4 NNE 28 33 15 18 1016.3 1016.3 0.0
02/06:30am 13.0 6.9 2.5 49 4.6 NNE 24 30 13 16 1016.1 1016.1 0.0
02/06:00am 13.0 6.6 3.4 52 4.3 NNE 26 32 14 17 1016.3 1016.3 0.0
02/05:30am 12.8 6.8 3.6 53 4.1 NNE 24 28 13 15 1016.6 1016.6 0.0
02/05:00am 12.6 6.3 3.7 54 4.0 NNE 26 32 14 17 1016.4 1016.4 0.0
02/04:30am 12.7 6.1 4.1 56 3.9 NNE 28 33 15 18 1016.5 1016.5 0.0
02/04:00am 12.9 6.3 4.1 55 4.0 NNE 28 35 15 19 1016.9 1016.9 0.0
02/03:30am 12.7 6.1 4.3 56 3.8 NNE 28 33 15 18 1017.3 1017.3 0.0
02/03:00am 12.6 6.0 4.2 56 3.8 NNE 28 37 15 20 1017.5 1017.5 0.0
02/02:30am 12.8 6.5 3.9 54 4.0 NNE 26 33 14 18 1018.2 1018.2 0.0
02/02:00am 12.7 6.1 4.1 56 3.9 NNE 28 33 15 18 1018.6 1018.6 0.0
02/01:30am 12.5 5.4 3.8 55 3.9 NNE 30 35 16 19 1018.7 1018.7 0.0
02/01:00am 12.2 5.9 3.7 56 3.8 NNE 26 33 14 18 1019.1 1019.1 0.0
02/12:30am 12.4 6.4 3.6 55 3.9 NNE 24 28 13 15 1019.1 1019.1 0.0
02/12:00am 12.2 5.8 3.4 55 3.9 NNE 26 30 14 16 1019.7 1019.7 0.0
 
Date/Time
WST
Temp
°C
App
Temp
°C
Dew
Point
Rel
Hum
%
Delta-T
°C
Wind Press
QNH
hPa
Press
MSL
hPa
Rain
since 9 am
mm
Dir
 
Spd
km/h
Gust
km/h
Spd
kts
Gust
kts
01/11:30pm 12.3 6.3 3.2 54 4.0 NE 24 30 13 16 1019.8 1019.8 0.0
01/11:00pm 11.9 6.1 4.4 60 3.4 NE 24 30 13 16 1020.1 1020.1 0.0
01/10:30pm 11.7 6.4 5.1 64 3.0 NE 22 28 12 15 1020.3 1020.3 0.0
01/10:00pm 12.4 7.7 6.0 65 3.0 NE 20 24 11 13 1020.6 1020.6 0.0
01/09:30pm 12.7 8.4 7.8 72 2.4 NE 20 22 11 12 1021.0 1021.0 0.0
01/09:00pm 12.7 8.5 8.2 74 2.2 ENE 20 24 11 13 1021.0 1021.0 0.0
01/08:30pm 12.9 8.6 7.8 71 2.5 NE 20 24 11 13 1021.4 1021.4 0.0
01/08:00pm 12.5 8.4 6.4 66 2.9 NE 17 20 9 11 1021.5 1021.5 0.0
01/07:30pm 13.0 9.3 6.5 64 3.1 NE 15 19 8 10 1021.1 1021.1 0.0
01/07:00pm 13.6 10.2 5.7 59 3.7 NE 13 19 7 10 1021.3 1021.3 0.0
01/06:30pm 14.7 11.0 6.1 56 4.1 ENE 15 20 8 11 1021.2 1021.2 0.0
01/06:00pm 14.9 10.2 5.1 52 4.6 E 19 20 10 11 1021.4 1021.4 0.0
01/05:30pm 15.1 11.1 4.8 50 4.8 E 15 20 8 11 1021.2 1021.2 0.0
01/05:00pm 15.1 11.1 4.8 50 4.8 E 15 20 8 11 1021.2 1021.2 0.0
01/04:30pm 15.1 10.8 3.4 45 5.3 ESE 15 19 8 10 1021.3 1021.3 0.0
01/04:00pm 15.9 11.7 3.7 44 5.6 ESE 15 20 8 11 1021.2 1021.2 0.0
01/03:30pm 16.1 11.1 3.4 42 5.8 E 19 24 10 13 1021.0 1021.0 0.0
01/03:00pm 15.8 11.5 3.3 43 5.7 E 15 19 8 10 1021.0 1021.0 0.0
01/02:30pm 16.2 12.2 3.0 41 6.0 E 13 19 7 10 1021.2 1021.2 0.0
01/02:00pm 15.8 10.8 3.5 43 5.6 E 19 22 10 12 1021.5 1021.5 0.0
01/01:30pm 15.9 11.0 4.0 45 5.5 E 19 24 10 13 1021.7 1021.7 0.0
01/01:00pm 15.6 10.6 3.8 45 5.4 E 19 22 10 12 1022.3 1022.3 0.0
01/12:30pm 15.6 10.5 3.2 43 5.6 E 19 24 10 13 1022.9 1022.9 0.0
01/12:00pm 15.1 9.9 2.5 42 5.6 E 19 26 10 14 1023.2 1023.2 0.0
01/11:30am 15.3 10.1 3.7 46 5.3 ENE 20 24 11 13 1023.8 1023.8 0.0
01/11:00am 15.0 10.0 3.8 47 5.1 NNE 19 26 10 14 1024.1 1024.1 0.0
01/10:30am 14.2 9.0 3.8 49 4.7 NNE 20 28 11 15 1024.3 1024.3 0.0
01/10:00am 13.6 8.2 4.4 53 4.2 NNE 22 30 12 16 1024.4 1024.4 0.0
01/09:30am 12.5 6.4 4.6 58 3.6 NNE 26 32 14 17 1024.3 1024.3 0.0
01/09:00am 11.4 4.8 4.0 60 3.3 NNE 28 35 15 19 1024.2 1024.2 0.0
01/08:30am 10.5 4.2 3.9 63 2.9 NNE 26 33 14 18 1023.7 1023.7 0.0
01/08:00am 10.0 4.0 3.6 64 2.8 NNE 24 32 13 17 1023.8 1023.8 0.0
01/07:30am 9.2 3.2 3.6 68 2.4 NNE 24 32 13 17 1023.5 1023.5 0.0
01/07:00am 8.7 2.4 3.6 70 2.2 NNE 26 33 14 18 1023.3 1023.3 0.0
01/06:30am 8.9 3.0 3.8 70 2.2 NNE 24 30 13 16 1023.4 1023.4 0.0
01/06:00am 8.9 3.4 4.1 72 2.1 NNE 22 28 12 15 1023.1 1023.1 0.0
01/05:30am 8.9 3.4 4.1 72 2.1 NNE 22 28 12 15 1023.1 1023.1 0.0
01/05:00am 8.9 3.5 4.3 73 2.0 NNE 22 28 12 15 1022.7 1022.7 0.0
01/04:30am 9.1 4.0 4.3 72 2.1 NNE 20 26 11 14 1022.6 1022.6 0.0
01/04:00am 9.1 4.1 4.6 73 2.0 NNE 20 26 11 14 1022.6 1022.6 0.0
01/03:30am 9.1 4.1 4.8 74 1.9 NNE 20 24 11 13 1022.4 1022.4 0.0
01/03:00am 9.5 4.5 4.5 71 2.2 NNE 20 26 11 14 1022.5 1022.5 0.0
01/02:30am 9.7 5.0 5.0 72 2.1 NNE 19 22 10 12 1022.4 1022.4 0.0
01/02:00am 9.8 5.4 4.9 71 2.2 NNE 17 20 9 11 1022.7 1022.7 0.0
01/01:30am 9.9 6.3 5.2 72 2.1 NNE 13 19 7 10 1022.9 1022.9 0.0
01/01:00am 10.0 6.1 5.4 73 2.1 NNE 15 20 8 11 1022.8 1022.8 0.0
01/12:30am 10.2 6.6 4.8 69 2.4 NE 13 15 7 8 1022.6 1022.6 0.0
01/12:00am 11.9 7.9 2.7 53 4.0 SSE 13 19 7 10 1022.6 1022.6 0.0
 
Date/Time
WST
Temp
°C
App
Temp
°C
Dew
Point
Rel
Hum
%
Delta-T
°C
Wind Press
QNH
hPa
Press
MSL
hPa
Rain
since 9 am
mm
Dir
 
Spd
km/h
Gust
km/h
Spd
kts
Gust
kts
31/11:30pm 11.8 7.7 2.5 53 4.0 S 13 17 7 9 1022.9 1022.9 0.0
31/11:00pm 11.9 7.9 3.0 54 3.9 S 13 20 7 11 1023.2 1023.2 0.0
31/10:30pm 11.9 8.5 4.1 59 3.5 S 11 15 6 8 1023.4 1023.4 0.0
31/10:00pm 12.2 8.8 3.9 57 3.7 S 11 15 6 8 1023.4 1023.4 0.0
31/09:30pm 12.4 8.7 4.2 57 3.7 S 13 19 7 10 1023.0 1023.0 0.0
31/09:00pm 12.5 8.8 4.3 57 3.7 S 13 20 7 11 1022.8 1022.8 0.0
31/08:30pm 12.6 8.8 3.9 55 3.9 S 13 22 7 12 1022.6 1022.6 0.0
31/08:00pm 12.7 8.7 4.8 58 3.6 S 15 20 8 11 1022.4 1022.4 0.0
31/07:30pm 12.4 8.3 4.5 58 3.6 SSW 15 20 8 11 1022.1 1022.1 0.0
31/07:00pm 12.6 8.0 3.6 54 4.0 S 17 24 9 13 1021.9 1021.9 0.0
31/06:30pm 12.7 8.2 4.3 56 3.8 SSW 17 24 9 13 1021.7 1021.7 0.0
31/06:00pm 12.9 8.0 5.1 59 3.6 SSW 20 28 11 15 1021.7 1021.7 0.0
31/05:30pm 13.3 8.1 5.4 59 3.7 SSW 22 30 12 16 1021.6 1021.6 0.0
31/05:00pm 13.3 8.7 6.4 63 3.3 SSW 20 30 11 16 1021.2 1021.2 0.0
31/04:30pm 14.0 9.0 6.5 60 3.6 SSW 22 30 12 16 1020.8 1020.8 0.0
31/04:00pm 15.4 10.9 6.0 53 4.5 SSW 19 24 10 13 1020.5 1020.5 0.0
31/03:30pm 13.6 9.3 7.0 64 3.2 S 19 24 10 13 1020.5 1020.5 0.0
31/03:00pm 15.7 12.0 6.4 54 4.5 SW 15 22 8 12 1020.1 1020.1 0.0
31/02:30pm 16.3 12.0 5.4 48 5.2 SSW 17 20 9 11 1020.0 1020.0 0.0
31/02:00pm 15.7 11.0 5.9 52 4.7 SW 20 30 11 16 1019.9 1019.9 0.0
31/01:30pm 15.5 10.9 6.7 55 4.3 SSW 20 28 11 15 1019.6 1019.6 0.0
31/01:00pm 15.9 11.1 5.4 49 5.0 SW 20 26 11 14 1019.7 1019.7 0.0
31/12:30pm 15.9 10.7 5.7 50 4.9 SW 22 30 12 16 1019.9 1019.9 0.0
31/12:00pm 16.2 11.2 6.3 52 4.8 SW 22 28 12 15 1019.9 1019.9 0.0
31/11:30am 15.7 10.6 5.9 52 4.7 SW 22 28 12 15 1020.1 1020.1 0.0
31/11:00am 15.8 11.5 7.1 56 4.3 SSW 19 26 10 14 1020.2 1020.2 0.0
31/10:30am 15.4 10.8 6.3 54 4.4 SSW 20 26 11 14 1020.3 1020.3 0.0
31/10:00am 14.8 10.6 5.8 55 4.3 SW 17 22 9 12 1020.1 1020.1 0.0
31/09:30am 14.3 8.6 6.6 60 3.7 SSW 26 35 14 19 1020.2 1020.2 0.0
31/09:03am 14.7 8.4 5.9 55 4.2 WSW 28 50 15 27 1019.9 1019.9 0.0
31/09:00am 14.3 8.3 5.1 54 4.3 WSW 26 33 14 18 1019.9 1019.9 0.6
31/08:30am 13.8 7.6 6.0 59 3.7 WSW 28 35 15 19 1019.6 1019.6 0.6
31/08:00am 14.1 8.2 5.6 56 4.0 WSW 26 35 14 19 1019.4 1019.4 0.6
31/07:30am 13.4 7.0 5.2 57 3.8 SW 28 37 15 20 1019.0 1019.0 0.6
31/07:00am 13.3 7.6 5.1 57 3.8 SW 24 32 13 17 1018.7 1018.7 0.6
31/06:30am 13.4 6.4 3.9 52 4.3 SW 30 37 16 20 1018.5 1018.5 0.6
31/06:00am 13.6 6.1 4.2 53 4.3 WSW 33 39 18 21 1018.4 1018.4 0.6
31/05:30am 13.5 7.4 6.4 62 3.4 SW 28 37 15 20 1018.0 1018.0 0.6
31/05:00am 13.2 7.6 5.2 58 3.7 SW 24 32 13 17 1017.6 1017.6 0.6
31/04:30am 13.6 7.3 5.5 58 3.8 WSW 28 35 15 19 1017.6 1017.6 0.6
31/04:00am 13.5 7.1 5.1 57 3.9 WSW 28 35 15 19 1017.6 1017.6 0.6
31/03:30am 13.6 7.1 6.5 62 3.4 WSW 30 39 16 21 1017.7 1017.7 0.6
31/03:00am 13.5 7.8 6.6 63 3.3 WSW 26 33 14 18 1017.8 1017.8 0.6
31/02:30am 13.4 6.9 6.7 64 3.2 WSW 30 39 16 21 1017.9 1017.9 0.6
31/02:00am 13.4 7.9 7.5 67 2.9 SW 26 33 14 18 1017.7 1017.7 0.6
31/01:30am 12.8 6.9 7.4 69 2.6 SW 28 35 15 19 1017.8 1017.8 0.6
31/01:00am 12.5 8.6 7.3 70 2.5 WSW 17 20 9 11 1017.5 1017.5 0.2
31/12:30am 12.9 8.0 7.1 68 2.8 WSW 22 30 12 16 1017.6 1017.6 0.0
31/12:00am 13.7 9.3 7.6 66 3.0 SW 20 33 11 18 1017.6 1017.6 0.0
 
Date/Time
WST
Temp
°C
App
Temp
°C
Dew
Point
Rel
Hum
%
Delta-T
°C
Wind Press
QNH
hPa
Press
MSL
hPa
Rain
since 9 am
mm
Dir
 
Spd
km/h
Gust
km/h
Spd
kts
Gust
kts
30/11:30pm 13.6 8.0 7.2 65 3.1 WSW 26 32 14 17 1017.7 1017.7 0.0
30/11:00pm 13.4 9.2 8.2 71 2.6 WSW 20 24 11 13 1017.7 1017.7 0.0
30/10:30pm 13.0 8.5 8.4 73 2.3 SSW 22 28 12 15 1017.8 1017.8 0.0
30/10:00pm 12.7 8.8 8.7 76 2.0 SSW 19 24 10 13 1018.0 1018.0 0.0
30/09:30pm 13.3 8.9 8.9 74 2.2 SSW 22 26 12 14 1018.3 1018.3 0.0
30/09:00pm 12.8 12.1 8.4 74 2.2 W 2 9 1 5 1018.0 1018.0 0.0
30/08:30pm 12.9 7.7 8.7 75 2.1 SW 26 32 14 17 1017.9 1017.9 0.0
30/08:16pm 13.7 6.8 8.7 72 2.5 SW 35 39 19 21 1017.8 1017.8 0.0
30/08:00pm 13.7 10.1 6.6 62 3.4 WSW 15 20 8 11 1017.7 1017.7 0.0
30/07:30pm 12.6 11.0 8.1 74 2.2 NE 6 13 3 7 1017.7 1017.7 0.0

Other Formats:

Comma delimited format used in spreadsheet applications
http://www.bom.gov.au/fwo/IDW60801/IDW60801.94601.axf

JavaScript Object Notation format (JSON) in row-major order
http://www.bom.gov.au/fwo/IDW60801/IDW60801.94601.json